Carthage, North Carolina
Current Conditions -  °F | °C
As of 2:55 AM on Saturday 01 Nov 2014 (Local Time) from KSOP Reporting Station
Overcast Overcast  
Wind Chill: 46°   Ceiling: 400
Heat Index: 48°   Visibility: 8mi
Dew Point: 45°   Wind: 6mph
Humidity: 87%   Direction: 30°NNE
Pressure: 29.73"   Gusts: NA
Location:  35.35°N, 79.42°W
Report Text: KSOP 010655Z AUTO 03005KT 8SM BKN004 BKN034 OVC042 09/07 A2973 RMK AO1 P0013
Loading
Personal Weather Stations






























Interactive Weather Map New forecast layout! Learn more

10-Day Weather Forecast

Advertisements
Track Severe Weather on mobile